Time;durP1;ratioP1;P1;durP2;ratioP2;P2;SDS_P1;SDS_P2;PMS_P1;PMS_P2;Temp;Humidity;BMP_temperature;BMP_pressure;BME280_temperature;BME280_humidity;BME280_pressure;Samples;Min_cycle;Max_cycle;Signal;HPM_P1;HPM_P2
2021/07/28 00:00:33;;;;;;;12.18;10.35;;;21.40;89.30;;;;;;5056880;28;20207;-89
2021/07/28 00:02:59;;;;;;;11.73;10.68;;;21.30;90.50;;;;;;5033603;28;20635;-89
2021/07/28 00:05:25;;;;;;;12.40;11.40;;;21.30;90.90;;;;;;5054233;28;20222;-89
2021/07/28 00:07:51;;;;;;;12.30;11.30;;;21.40;90.90;;;;;;5041161;28;20220;-90
2021/07/28 00:10:17;;;;;;;12.65;11.55;;;21.30;90.30;;;;;;5045868;28;20189;-89
2021/07/28 00:12:42;;;;;;;11.73;10.75;;;21.20;91.10;;;;;;5049879;28;20183;-89
2021/07/28 00:15:09;;;;;;;12.50;11.40;;;21.20;91.00;;;;;;5056797;28;20682;-89
2021/07/28 00:17:38;;;;;;;11.23;10.32;;;21.00;90.80;;;;;;5038864;28;20218;-89
2021/07/28 00:20:13;;;;;;;10.70;9.88;;;20.80;90.10;;;;;;5053345;28;20230;-89
2021/07/28 00:25:24;;;;;;;11.50;10.40;;;20.60;90.50;;;;;;5045069;28;20234;-88
2021/07/28 00:27:50;;;;;;;11.05;10.10;;;20.60;89.80;;;;;;5061520;28;20234;-89
2021/07/28 00:30:16;;;;;;;10.88;9.98;;;20.50;89.80;;;;;;5059177;28;20189;-89
2021/07/28 00:32:42;;;;;;;10.77;9.85;;;20.60;90.00;;;;;;5040287;28;20220;-89
2021/07/28 00:35:08;;;;;;;10.98;9.98;;;20.50;89.90;;;;;;5055795;28;20264;-88
2021/07/28 00:37:34;;;;;;;10.55;9.65;;;20.60;89.40;;;;;;5037147;28;20704;-88
2021/07/28 00:40:00;;;;;;;10.93;10.02;;;20.70;89.10;;;;;;5055664;28;20233;-89
2021/07/28 00:42:27;;;;;;;11.13;10.05;;;20.70;88.70;;;;;;5057196;28;20469;-89
2021/07/28 00:44:52;;;;;;;10.35;9.45;;;20.70;88.60;;;;;;5051475;28;20199;-87
2021/07/28 00:47:18;;;;;;;9.18;8.38;;;20.60;88.60;;;;;;5046285;28;20221;-89
2021/07/28 00:49:45;;;;;;;10.07;9.15;;;20.60;89.10;;;;;;5049965;28;20185;-89
2021/07/28 00:52:11;;;;;;;10.38;9.38;;;20.60;88.90;;;;;;5054463;28;20281;-88
2021/07/28 00:54:39;;;;;;;10.07;9.15;;;20.50;88.90;;;;;;5053398;28;20197;-90
2021/07/28 00:57:07;;;;;;;10.38;9.38;;;20.50;89.10;;;;;;5057709;28;20235;-89
2021/07/28 00:59:33;;;;;;;9.63;8.75;;;20.30;89.70;;;;;;5044288;28;20186;-89
2021/07/28 01:01:58;;;;;;;9.57;8.55;;;20.20;90.00;;;;;;5051619;28;20271;-89
2021/07/28 01:04:25;;;;;;;10.30;9.30;;;20.30;89.90;;;;;;5055202;28;20244;-89
2021/07/28 01:06:50;;;;;;;10.48;9.40;;;20.20;90.20;;;;;;5056461;28;20598;-89
2021/07/28 01:09:16;;;;;;;9.15;8.27;;;20.10;90.20;;;;;;5056708;28;20222;-89
2021/07/28 01:11:42;;;;;;;9.75;8.88;;;20.10;91.30;;;;;;5030594;28;20218;-88
2021/07/28 01:14:07;;;;;;;8.75;7.95;;;20.20;90.10;;;;;;5056536;28;20224;-88
2021/07/28 01:16:43;;;;;;;9.00;8.20;;;20.30;89.50;;;;;;5046453;28;20201;-88
2021/07/28 01:19:14;;;;;;;9.50;8.63;;;20.50;87.70;;;;;;5049892;28;20585;-88
2021/07/28 01:21:42;;;;;;;8.75;8.02;;;20.50;88.20;;;;;;5056641;28;20489;-88
2021/07/28 01:24:10;;;;;;;9.38;8.45;;;20.50;87.60;;;;;;5057229;28;20185;-88
2021/07/28 01:26:37;;;;;;;11.75;8.02;;;20.50;87.40;;;;;;5055449;28;20651;-89
2021/07/28 01:29:03;;;;;;;8.55;7.90;;;20.50;86.70;;;;;;5056038;28;20221;-88
2021/07/28 01:31:30;;;;;;;17.40;8.52;;;20.60;86.20;;;;;;5057081;28;20660;-88
2021/07/28 01:33:56;;;;;;;9.50;8.60;;;20.80;85.60;;;;;;5056570;28;20184;-88
2021/07/28 01:36:23;;;;;;;10.05;9.25;;;20.80;85.00;;;;;;5037604;28;20195;-89
2021/07/28 01:38:50;;;;;;;9.30;7.82;;;20.70;84.90;;;;;;5041252;28;20216;-89
2021/07/28 01:41:15;;;;;;;9.15;8.25;;;20.50;85.80;;;;;;5037815;28;20218;-89
2021/07/28 01:43:42;;;;;;;8.82;8.10;;;20.40;86.10;;;;;;5056624;28;20683;-89
2021/07/28 01:46:08;;;;;;;8.98;8.23;;;20.50;85.70;;;;;;5036504;28;20253;-89
2021/07/28 01:48:35;;;;;;;8.52;7.82;;;20.50;85.80;;;;;;5056601;28;20204;-88
2021/07/28 01:51:02;;;;;;;8.93;8.23;;;20.50;85.00;;;;;;5055953;28;20183;-89
2021/07/28 01:53:28;;;;;;;8.18;7.47;;;20.50;85.30;;;;;;5054985;28;20195;-89
2021/07/28 01:55:56;;;;;;;8.88;8.18;;;20.50;85.20;;;;;;5053910;28;20183;-89
2021/07/28 01:58:22;;;;;;;9.00;8.10;;;20.50;84.40;;;;;;5057367;28;20219;-89
2021/07/28 02:00:48;;;;;;;9.02;8.13;;;20.40;84.30;;;;;;5038030;28;20182;-90
2021/07/28 02:03:15;;;;;;;8.65;7.88;;;20.40;84.30;;;;;;5037701;28;20226;-89
2021/07/28 02:05:42;;;;;;;8.30;7.60;;;20.40;84.20;;;;;;5054624;28;20668;-89
2021/07/28 02:08:10;;;;;;;8.38;7.50;;;20.40;83.80;;;;;;5055519;28;20238;-89
2021/07/28 02:10:48;;;;;;;8.15;7.45;;;20.40;84.40;;;;;;5053058;28;20190;-89
2021/07/28 02:13:20;;;;;;;8.93;8.05;;;20.50;83.40;;;;;;5054673;28;20287;-89
2021/07/28 02:15:46;;;;;;;9.25;8.38;;;20.40;83.00;;;;;;5040256;28;20196;-88
2021/07/28 02:18:13;;;;;;;11.60;8.75;;;20.30;83.80;;;;;;5039351;28;20280;-89
2021/07/28 02:20:39;;;;;;;8.23;7.60;;;20.40;83.80;;;;;;5039064;28;20307;-88
2021/07/28 02:23:05;;;;;;;9.55;8.75;;;20.40;83.60;;;;;;5035274;28;21414;-89
2021/07/28 02:25:31;;;;;;;8.15;7.35;;;20.30;84.10;;;;;;5037027;28;20283;-88
2021/07/28 02:27:57;;;;;;;8.18;7.57;;;20.30;84.20;;;;;;5034390;28;20220;-90
2021/07/28 02:30:24;;;;;;;8.70;8.00;;;20.30;84.10;;;;;;5052219;28;20253;-89
2021/07/28 02:32:50;;;;;;;8.77;7.97;;;20.30;84.00;;;;;;5053737;28;20244;-88
2021/07/28 02:35:16;;;;;;;9.13;8.23;;;20.20;83.80;;;;;;5053415;28;20181;-87
2021/07/28 02:37:44;;;;;;;8.73;7.97;;;20.30;83.80;;;;;;5046299;28;20873;-90
2021/07/28 02:40:16;;;;;;;9.70;8.80;;;20.40;83.50;;;;;;5043625;28;20187;-89
2021/07/28 02:42:41;;;;;;;8.88;8.05;;;20.30;83.40;;;;;;5028396;28;20186;-88
2021/07/28 02:45:08;;;;;;;8.95;8.10;;;20.40;83.30;;;;;;5050896;28;20225;-89
2021/07/28 02:47:34;;;;;;;9.48;7.20;;;20.30;83.20;;;;;;5049311;28;20240;-89
2021/07/28 02:50:00;;;;;;;9.60;8.75;;;20.20;83.40;;;;;;5029063;28;20188;-88
2021/07/28 02:52:25;;;;;;;9.35;8.50;;;20.20;83.50;;;;;;5054921;28;20199;-89
2021/07/28 02:54:51;;;;;;;8.50;7.70;;;20.20;83.70;;;;;;5037747;28;20271;-89
2021/07/28 02:57:17;;;;;;;10.52;8.13;;;20.10;84.40;;;;;;5056692;28;20705;-91
2021/07/28 02:59:42;;;;;;;9.85;8.82;;;20.00;84.30;;;;;;5057158;28;20666;-89
2021/07/28 03:02:08;;;;;;;10.25;8.52;;;20.00;84.20;;;;;;5047048;28;20188;-89
2021/07/28 03:04:34;;;;;;;9.88;8.43;;;19.90;84.60;;;;;;5053698;28;20190;-91
2021/07/28 03:06:59;;;;;;;11.60;8.88;;;19.90;84.90;;;;;;5022339;28;20204;-90
2021/07/28 03:09:25;;;;;;;8.77;8.07;;;19.90;84.80;;;;;;5051733;28;20222;-90
2021/07/28 03:11:51;;;;;;;8.48;7.78;;;19.90;84.80;;;;;;5046754;28;20257;-90
2021/07/28 03:14:17;;;;;;;8.35;7.75;;;20.00;84.70;;;;;;5040598;28;20188;-90
2021/07/28 03:16:42;;;;;;;8.73;7.90;;;20.20;84.30;;;;;;5054194;28;20297;-90
2021/07/28 03:19:08;;;;;;;8.30;7.55;;;20.00;83.10;;;;;;5058351;28;20198;-88
2021/07/28 03:21:34;;;;;;;8.55;7.85;;;20.10;83.70;;;;;;5056254;28;20222;-89
2021/07/28 03:24:01;;;;;;;8.93;8.15;;;20.00;83.30;;;;;;5054937;28;20200;-90
2021/07/28 03:26:27;;;;;;;9.35;8.45;;;19.90;84.10;;;;;;5052088;28;20199;-89
2021/07/28 03:28:52;;;;;;;8.85;7.93;;;19.90;84.10;;;;;;5056210;28;20223;-90
2021/07/28 03:31:18;;;;;;;9.02;7.95;;;19.90;83.90;;;;;;5045649;28;20266;-88
2021/07/28 03:33:44;;;;;;;8.88;8.02;;;20.00;83.40;;;;;;5052370;28;20184;-89
2021/07/28 03:36:09;;;;;;;8.30;7.50;;;20.00;83.50;;;;;;5068181;28;20221;-88
2021/07/28 03:38:35;;;;;;;9.05;8.35;;;20.10;83.20;;;;;;5074777;28;20226;-90
2021/07/28 03:41:01;;;;;;;8.13;7.53;;;20.10;82.90;;;;;;5070131;28;20204;-90
2021/07/28 03:43:26;;;;;;;8.32;7.68;;;20.10;83.30;;;;;;5056543;28;20447;-91
2021/07/28 03:45:53;;;;;;;9.10;8.20;;;20.00;83.70;;;;;;5058623;28;20180;-90
2021/07/28 03:48:19;;;;;;;9.15;8.45;;;20.00;83.50;;;;;;5057208;28;20222;-91
2021/07/28 03:50:44;;;;;;;8.90;8.18;;;20.00;83.50;;;;;;5054039;28;20270;-89
2021/07/28 03:53:10;;;;;;;10.73;9.60;;;20.00;83.60;;;;;;5055217;28;20611;-90
2021/07/28 03:55:36;;;;;;;11.25;9.73;;;19.80;84.30;;;;;;5054979;28;20193;-90
2021/07/28 03:58:02;;;;;;;10.23;9.32;;;19.60;85.90;;;;;;5038792;28;20282;-91
2021/07/28 04:00:27;;;;;;;10.73;9.07;;;19.50;86.10;;;;;;5055067;28;20198;-90
2021/07/28 04:02:53;;;;;;;9.23;8.50;;;19.60;85.70;;;;;;5058581;28;20184;-91
2021/07/28 04:05:19;;;;;;;8.60;7.80;;;19.60;84.90;;;;;;5055745;28;20204;-88
2021/07/28 04:07:48;;;;;;;9.65;8.10;;;19.60;84.70;;;;;;5051747;28;20218;-89
2021/07/28 04:10:13;;;;;;;8.98;8.18;;;19.70;85.00;;;;;;5046708;28;20206;-90
2021/07/28 04:12:39;;;;;;;8.60;7.88;;;19.70;84.30;;;;;;5055619;28;20265;-88
2021/07/28 04:15:05;;;;;;;10.07;8.98;;;19.70;84.30;;;;;;5050034;28;20292;-90
2021/07/28 04:17:32;;;;;;;9.15;8.20;;;19.70;83.80;;;;;;5051600;28;20273;-90
2021/07/28 04:19:59;;;;;;;7.75;7.13;;;19.50;83.90;;;;;;5045337;28;20195;-90
2021/07/28 04:22:25;;;;;;;9.38;8.52;;;19.50;84.40;;;;;;5055809;28;20200;-91
2021/07/28 04:24:51;;;;;;;9.63;8.73;;;19.60;85.40;;;;;;5034316;28;20902;-88
2021/07/28 04:27:16;;;;;;;10.45;9.45;;;19.70;85.40;;;;;;5020720;28;20219;-90
2021/07/28 04:29:42;;;;;;;9.32;8.50;;;19.80;86.10;;;;;;5056731;28;20197;-90
2021/07/28 04:32:08;;;;;;;12.40;10.20;;;19.90;85.20;;;;;;5033871;28;20216;-89
2021/07/28 04:34:34;;;;;;;11.90;10.80;;;19.80;85.70;;;;;;5056038;28;20188;-90
2021/07/28 04:37:00;;;;;;;11.68;10.48;;;19.50;88.50;;;;;;5056007;28;20204;-89
2021/07/28 04:39:26;;;;;;;12.65;11.40;;;19.30;89.60;;;;;;5057252;28;20193;-89
2021/07/28 04:41:51;;;;;;;10.98;10.05;;;19.20;90.50;;;;;;5051393;28;20190;-91
2021/07/28 04:44:17;;;;;;;12.25;10.98;;;19.10;91.50;;;;;;5025264;28;20200;-91
2021/07/28 04:46:43;;;;;;;12.27;11.25;;;19.10;90.90;;;;;;5027322;28;20708;-90
2021/07/28 04:49:09;;;;;;;11.00;9.95;;;19.10;91.50;;;;;;5050201;28;20276;-90
2021/07/28 04:51:34;;;;;;;11.57;10.27;;;19.20;91.10;;;;;;5049594;28;20178;-90
2021/07/28 04:54:00;;;;;;;9.13;7.88;;;19.30;90.40;;;;;;5046846;28;20200;-88
2021/07/28 04:56:26;;;;;;;9.85;9.05;;;19.30;89.40;;;;;;5059355;28;20199;-90
2021/07/28 04:58:52;;;;;;;9.70;8.70;;;19.50;88.20;;;;;;5064361;28;20214;-92
2021/07/28 05:01:17;;;;;;;8.73;7.90;;;19.60;87.10;;;;;;5057755;28;20186;-93
2021/07/28 05:03:43;;;;;;;9.90;9.05;;;19.70;86.60;;;;;;5038395;28;20199;-91
2021/07/28 05:06:09;;;;;;;9.73;8.93;;;19.80;86.20;;;;;;5038452;28;20198;-91
2021/07/28 05:08:34;;;;;;;9.93;9.13;;;19.80;86.50;;;;;;5036296;28;20229;-90
2021/07/28 05:11:00;;;;;;;11.00;9.85;;;19.90;86.00;;;;;;5051247;28;20663;-89
2021/07/28 05:13:26;;;;;;;11.65;10.32;;;20.00;85.50;;;;;;5028011;28;20198;-90
2021/07/28 05:15:55;;;;;;;11.82;10.70;;;20.00;86.30;;;;;;5047383;28;20210;-90
2021/07/28 05:18:24;;;;;;;13.20;11.50;;;19.80;88.10;;;;;;5046708;28;20205;-89
2021/07/28 05:20:52;;;;;;;13.52;10.73;;;19.50;90.00;;;;;;5053983;28;20199;-92
2021/07/28 05:23:17;;;;;;;11.38;10.45;;;19.50;90.20;;;;;;5017843;28;20219;-87
2021/07/28 05:25:43;;;;;;;12.38;10.90;;;19.50;90.10;;;;;;5050016;28;20821;-89
2021/07/28 05:28:09;;;;;;;12.57;11.38;;;19.30;91.80;;;;;;5051413;28;20223;-89
2021/07/28 05:30:35;;;;;;;11.82;10.73;;;19.10;92.60;;;;;;5047209;28;20192;-90
2021/07/28 05:33:00;;;;;;;11.23;10.18;;;19.10;92.90;;;;;;5024484;28;20198;-90
2021/07/28 05:35:26;;;;;;;12.35;11.15;;;18.90;93.60;;;;;;5043972;28;20676;-91
2021/07/28 05:38:03;;;;;;;12.45;11.32;;;19.00;93.40;;;;;;5045991;28;20625;-89
2021/07/28 05:40:30;;;;;;;12.30;11.10;;;19.00;93.50;;;;;;5023667;28;20216;-91
2021/07/28 05:42:55;;;;;;;12.05;10.95;;;19.10;93.80;;;;;;5021470;28;21809;-91
2021/07/28 05:45:21;;;;;;;11.00;10.10;;;19.00;93.40;;;;;;5046045;28;20196;-90
2021/07/28 05:47:47;;;;;;;12.05;10.85;;;19.00;93.80;;;;;;5024324;28;20236;-90
2021/07/28 05:50:13;;;;;;;12.05;10.88;;;19.20;93.50;;;;;;5048424;28;20188;-89
2021/07/28 05:52:39;;;;;;;10.75;9.75;;;19.30;92.40;;;;;;5048600;28;20184;-86
2021/07/28 05:55:05;;;;;;;11.38;9.93;;;19.30;91.50;;;;;;5044358;28;20669;-88
2021/07/28 05:57:31;;;;;;;10.73;9.70;;;19.40;91.70;;;;;;5024998;28;20222;-89
2021/07/28 05:59:57;;;;;;;10.85;9.85;;;19.30;91.80;;;;;;5053133;28;20644;-88
2021/07/28 06:02:22;;;;;;;10.82;9.77;;;19.40;91.90;;;;;;5026123;28;20247;-88
2021/07/28 06:04:48;;;;;;;11.52;10.48;;;19.50;91.70;;;;;;5040368;28;20714;-89
2021/07/28 06:07:14;;;;;;;11.38;10.25;;;19.40;92.00;;;;;;5027394;28;20281;-88
2021/07/28 06:09:40;;;;;;;11.80;10.60;;;19.30;91.90;;;;;;5037729;28;20219;-88
2021/07/28 06:12:07;;;;;;;11.85;10.65;;;19.30;92.40;;;;;;5044215;28;20188;-89
2021/07/28 06:14:33;;;;;;;11.50;10.40;;;19.30;92.50;;;;;;5022823;28;20249;-86
2021/07/28 06:16:58;;;;;;;11.57;10.30;;;19.40;92.30;;;;;;5039957;28;20185;-88
2021/07/28 06:19:24;;;;;;;11.15;10.05;;;19.20;91.80;;;;;;5048217;28;20197;-88
2021/07/28 06:21:50;;;;;;;10.43;9.52;;;19.30;93.00;;;;;;5029324;28;20196;-88
2021/07/28 06:24:15;;;;;;;11.13;10.13;;;19.40;91.90;;;;;;5053749;28;20196;-87
2021/07/28 06:26:41;;;;;;;10.85;9.73;;;19.40;92.50;;;;;;5057718;28;20200;-88
2021/07/28 06:29:07;;;;;;;11.13;10.13;;;19.30;92.80;;;;;;5056967;28;20230;-88
2021/07/28 06:31:32;;;;;;;13.68;10.32;;;19.30;92.60;;;;;;5052078;28;20192;-89
2021/07/28 06:33:58;;;;;;;11.80;10.60;;;19.30;93.40;;;;;;5045627;28;20256;-88
2021/07/28 06:36:24;;;;;;;10.65;9.65;;;19.20;93.10;;;;;;5054492;28;20188;-89
2021/07/28 06:38:49;;;;;;;11.50;10.35;;;19.20;93.60;;;;;;5057336;28;20231;-88
2021/07/28 06:41:15;;;;;;;12.93;9.55;;;19.50;92.90;;;;;;5057402;28;20195;-88
2021/07/28 06:43:41;;;;;;;11.65;10.55;;;19.70;91.60;;;;;;5036529;28;20197;-90
2021/07/28 06:46:07;;;;;;;11.40;9.55;;;19.60;91.70;;;;;;5045457;28;20208;-88
2021/07/28 06:48:32;;;;;;;10.57;9.57;;;19.70;91.20;;;;;;5058320;28;20228;-89
2021/07/28 06:50:58;;;;;;;11.05;10.05;;;19.60;91.50;;;;;;5054183;28;20520;-86
2021/07/28 06:53:24;;;;;;;10.90;9.70;;;19.60;92.20;;;;;;5052087;28;20192;-88
2021/07/28 06:55:53;;;;;;;16.85;10.32;;;19.70;91.90;;;;;;5036709;28;20192;-87
2021/07/28 06:58:19;;;;;;;11.35;10.35;;;19.60;91.00;;;;;;5047501;28;20220;-87
2021/07/28 07:00:45;;;;;;;11.98;10.98;;;19.50;93.00;;;;;;5049064;28;20185;-88
2021/07/28 07:03:11;;;;;;;12.57;11.45;;;19.50;93.10;;;;;;5027060;28;20208;-89
2021/07/28 07:05:37;;;;;;;11.45;10.23;;;19.30;94.20;;;;;;5052321;28;20216;-88
2021/07/28 07:08:03;;;;;;;11.02;10.02;;;19.30;94.00;;;;;;5056102;28;20227;-88
2021/07/28 07:10:29;;;;;;;11.45;10.10;;;19.40;92.70;;;;;;5052518;28;20196;-89
2021/07/28 07:12:54;;;;;;;10.25;9.15;;;19.40;92.10;;;;;;5051827;28;20298;-88
2021/07/28 07:15:20;;;;;;;12.13;10.35;;;19.30;93.10;;;;;;5055473;28;20192;-89
2021/07/28 07:17:46;;;;;;;11.35;10.25;;;19.30;93.00;;;;;;5035556;28;20212;-88
2021/07/28 07:20:12;;;;;;;10.77;9.75;;;19.40;93.40;;;;;;5048987;28;20196;-89
2021/07/28 07:22:38;;;;;;;10.93;9.95;;;19.40;92.50;;;;;;5052723;28;20199;-91
2021/07/28 07:25:05;;;;;;;12.82;10.13;;;19.40;92.00;;;;;;5034283;28;20205;-92
2021/07/28 07:27:31;;;;;;;10.48;9.48;;;19.50;92.40;;;;;;5028676;28;20219;-93
2021/07/28 07:29:56;;;;;;;10.95;9.95;;;19.50;92.10;;;;;;5029841;28;20257;-92
2021/07/28 07:32:23;;;;;;;11.00;9.93;;;19.50;93.40;;;;;;5047394;28;20200;-92
2021/07/28 07:34:50;;;;;;;10.50;9.45;;;19.60;91.90;;;;;;5026904;28;20588;-91
2021/07/28 07:37:16;;;;;;;9.82;8.93;;;19.60;92.00;;;;;;5045803;28;20810;-92
2021/07/28 07:39:42;;;;;;;10.27;9.38;;;19.80;90.60;;;;;;5044695;28;20252;-93
2021/07/28 07:42:08;;;;;;;11.13;9.88;;;19.90;90.20;;;;;;5047274;28;20196;-93
2021/07/28 07:44:33;;;;;;;10.25;9.20;;;19.90;90.90;;;;;;5045224;28;20242;-93
2021/07/28 07:46:59;;;;;;;9.50;8.57;;;20.10;88.90;;;;;;5055561;28;20184;-91
2021/07/28 07:49:25;;;;;;;9.43;8.63;;;20.20;88.40;;;;;;5054036;28;20305;-93
2021/07/28 07:51:50;;;;;;;10.50;9.40;;;20.20;88.70;;;;;;5016591;28;20191;-90
2021/07/28 07:54:17;;;;;;;10.45;9.38;;;20.20;87.80;;;;;;5044160;28;20185;-91
2021/07/28 07:56:43;;;;;;;10.32;9.25;;;20.20;86.70;;;;;;5035533;28;20204;-90
2021/07/28 07:59:09;;;;;;;10.50;9.57;;;20.30;88.00;;;;;;5021674;28;20222;-90
2021/07/28 08:01:35;;;;;;;11.23;10.02;;;20.10;88.60;;;;;;5035836;28;20209;-92
2021/07/28 08:04:01;;;;;;;11.00;9.98;;;20.40;87.70;;;;;;5036412;28;20192;-92
2021/07/28 08:06:27;;;;;;;11.05;9.80;;;20.40;87.30;;;;;;5033791;28;20192;-91
2021/07/28 08:08:53;;;;;;;11.10;10.20;;;20.30;88.80;;;;;;5057321;28;20226;-92
2021/07/28 08:11:19;;;;;;;10.50;9.05;;;20.20;88.60;;;;;;5036409;28;20220;-92
2021/07/28 08:13:44;;;;;;;10.13;9.13;;;20.30;87.50;;;;;;5069258;28;20208;-92
2021/07/28 08:16:16;;;;;;;10.00;9.18;;;20.40;87.40;;;;;;5061250;28;20282;-90
2021/07/28 08:18:42;;;;;;;9.57;8.43;;;20.30;87.70;;;;;;5057117;28;20211;-91
2021/07/28 08:21:12;;;;;;;9.60;8.70;;;20.40;86.80;;;;;;5054002;28;20196;-91
2021/07/28 08:23:41;;;;;;;8.88;8.07;;;20.40;85.60;;;;;;5051380;28;20192;-91
2021/07/28 08:26:07;;;;;;;9.75;8.82;;;20.50;87.00;;;;;;5045271;28;20913;-91
2021/07/28 08:28:34;;;;;;;9.07;8.32;;;20.40;87.90;;;;;;5037719;28;20882;-91
2021/07/28 08:30:59;;;;;;;9.75;8.80;;;20.40;86.70;;;;;;5038635;28;20188;-91
2021/07/28 08:33:27;;;;;;;9.07;8.13;;;20.50;86.30;;;;;;5057279;28;20210;-91
2021/07/28 08:35:57;;;;;;;10.35;8.80;;;20.60;84.40;;;;;;5042524;28;20676;-92
2021/07/28 08:38:23;;;;;;;9.95;8.00;;;20.60;84.30;;;;;;5053513;28;20249;-90
2021/07/28 08:41:00;;;;;;;8.65;7.82;;;20.50;85.10;;;;;;5054492;28;20185;-91
2021/07/28 08:43:28;;;;;;;9.32;8.43;;;20.50;85.50;;;;;;5040274;28;20177;-91
2021/07/28 08:45:57;;;;;;;8.60;7.72;;;20.60;86.20;;;;;;5047517;28;20208;-91
2021/07/28 08:48:23;;;;;;;8.60;7.90;;;20.70;83.50;;;;;;5049138;28;20260;-91
2021/07/28 08:50:51;;;;;;;8.30;7.70;;;20.60;84.30;;;;;;5038997;28;20186;-91
2021/07/28 08:53:17;;;;;;;9.27;8.25;;;20.70;84.00;;;;;;5056950;28;20675;-90
2021/07/28 08:55:44;;;;;;;9.75;8.48;;;20.70;84.30;;;;;;5051306;28;20184;-91
2021/07/28 08:58:17;;;;;;;9.15;8.35;;;20.70;84.60;;;;;;5053771;28;20228;-91
2021/07/28 09:00:43;;;;;;;8.10;7.35;;;20.60;85.20;;;;;;5043291;28;20198;-91
2021/07/28 09:03:10;;;;;;;8.20;7.47;;;20.80;81.90;;;;;;5056063;28;20228;-92
2021/07/28 09:05:43;;;;;;;8.63;7.82;;;20.90;81.80;;;;;;5055981;28;20219;-91
2021/07/28 09:08:27;;;;;;;9.13;7.68;;;20.70;83.80;;;;;;5055418;28;20299;-91
2021/07/28 09:11:06;;;;;;;8.45;7.70;;;20.70;84.00;;;;;;5038925;28;20837;-91
2021/07/28 09:13:39;;;;;;;8.77;8.07;;;20.70;83.20;;;;;;5054223;28;20184;-91
2021/07/28 09:16:07;;;;;;;8.90;8.10;;;20.70;81.90;;;;;;5054838;28;20214;-91
2021/07/28 09:18:36;;;;;;;8.80;8.05;;;20.70;82.00;;;;;;5057423;28;20207;-91
2021/07/28 09:21:05;;;;;;;8.18;7.40;;;20.70;82.70;;;;;;5039942;28;20618;-92
2021/07/28 09:23:39;;;;;;;9.63;7.68;;;20.70;82.30;;;;;;5052798;28;20203;-91
2021/07/28 09:26:53;;;;;;;9.43;7.82;;;20.90;81.10;;;;;;5060130;28;20198;-91
2021/07/28 09:29:19;;;;;;;8.38;7.68;;;20.90;82.00;;;;;;5060361;28;20259;-92
2021/07/28 09:31:53;;;;;;;8.07;7.28;;;21.00;80.60;;;;;;5043920;28;20183;-91
2021/07/28 09:34:19;;;;;;;8.55;7.78;;;21.00;79.30;;;;;;5021529;28;20195;-92
2021/07/28 09:36:45;;;;;;;8.13;7.43;;;21.00;80.60;;;;;;5032615;28;20191;-91
2021/07/28 09:39:29;;;;;;;9.20;8.32;;;21.30;80.20;;;;;;5023672;28;20940;-91
2021/07/28 09:41:57;;;;;;;9.43;8.52;;;21.30;79.50;;;;;;5026271;28;20211;-92
2021/07/28 09:44:33;;;;;;;9.43;8.63;;;21.50;79.80;;;;;;5033670;28;20588;-91
2021/07/28 09:47:08;;;;;;;8.73;8.02;;;21.30;78.10;;;;;;5053149;28;20212;-92
2021/07/28 09:49:35;;;;;;;8.82;7.60;;;21.20;78.70;;;;;;5050821;28;20301;-91
2021/07/28 09:52:19;;;;;;;9.95;7.88;;;21.30;79.30;;;;;;5052798;28;20198;-92
2021/07/28 09:54:46;;;;;;;7.85;7.13;;;21.30;78.00;;;;;;5066795;28;20194;-91
2021/07/28 09:57:20;;;;;;;9.00;8.10;;;21.50;78.50;;;;;;5060719;28;20222;-91
2021/07/28 09:59:59;;;;;;;8.27;7.57;;;21.50;78.70;;;;;;5065042;28;20193;-91
2021/07/28 10:02:26;;;;;;;8.20;7.43;;;21.60;78.50;;;;;;5059259;28;20202;-91
2021/07/28 10:04:54;;;;;;;7.97;7.32;;;21.80;77.60;;;;;;5051201;28;20195;-92
2021/07/28 10:07:21;;;;;;;8.13;7.43;;;22.00;76.10;;;;;;5046126;28;20312;-91
2021/07/28 10:09:59;;;;;;;7.88;7.18;;;22.30;78.40;;;;;;5045055;28;20192;-92
2021/07/28 10:12:27;;;;;;;8.27;7.47;;;22.70;75.00;;;;;;5056998;28;20564;-92
2021/07/28 10:14:54;;;;;;;9.52;8.52;;;22.70;74.00;;;;;;5059132;28;20233;-91
2021/07/28 10:17:21;;;;;;;8.48;7.78;;;22.80;72.30;;;;;;5059766;28;20211;-92
2021/07/28 10:19:49;;;;;;;8.45;7.68;;;22.80;71.30;;;;;;5059010;28;20195;-91
2021/07/28 10:22:16;;;;;;;7.82;7.07;;;23.00;70.10;;;;;;5060008;28;20188;-91
2021/07/28 10:24:46;;;;;;;8.35;7.00;;;23.40;68.50;;;;;;5060433;28;20202;-91
2021/07/28 10:27:13;;;;;;;8.85;8.07;;;23.60;68.80;;;;;;5057897;28;20673;-91
2021/07/28 10:29:38;;;;;;;7.85;7.15;;;23.70;69.10;;;;;;5059652;28;20208;-91
2021/07/28 10:32:05;;;;;;;8.68;7.88;;;23.80;68.40;;;;;;5059244;28;20648;-91
2021/07/28 10:34:33;;;;;;;8.13;7.13;;;23.90;67.80;;;;;;5057191;28;20188;-91
2021/07/28 10:37:08;;;;;;;8.02;7.25;;;24.30;66.40;;;;;;5056257;28;20195;-91
2021/07/28 10:39:47;;;;;;;7.20;6.60;;;24.30;64.10;;;;;;5053664;28;20207;-91
2021/07/28 10:42:42;;;;;;;8.32;7.63;;;24.30;64.50;;;;;;5052091;28;20267;-91
2021/07/28 10:45:09;;;;;;;8.18;7.45;;;24.60;64.50;;;;;;5039906;28;20208;-90
2021/07/28 10:47:39;;;;;;;7.93;7.22;;;24.40;62.30;;;;;;5050222;28;20287;-91
2021/07/28 10:50:07;;;;;;;7.70;7.03;;;24.00;63.50;;;;;;5052941;28;20220;-91
2021/07/28 10:52:43;;;;;;;8.07;7.35;;;24.30;63.20;;;;;;5047984;28;20209;-91
2021/07/28 10:55:10;;;;;;;7.72;6.93;;;24.70;61.00;;;;;;5051276;28;20726;-91
2021/07/28 10:57:38;;;;;;;9.18;7.45;;;24.50;63.70;;;;;;5049188;28;20207;-88
2021/07/28 11:00:09;;;;;;;8.40;7.32;;;24.30;64.10;;;;;;5049931;28;20180;-91
2021/07/28 11:02:56;;;;;;;9.38;8.02;;;24.30;63.90;;;;;;5050892;28;20196;-91
2021/07/28 11:05:22;;;;;;;8.98;7.22;;;24.20;63.80;;;;;;5034319;28;20180;-91
2021/07/28 11:08:06;;;;;;;8.10;7.13;;;24.00;65.70;;;;;;5057922;28;20258;-90
2021/07/28 11:10:33;;;;;;;7.60;6.90;;;24.20;65.90;;;;;;5040164;28;20267;-91
2021/07/28 11:13:03;;;;;;;7.97;7.18;;;23.90;61.80;;;;;;5056849;28;20259;-90
2021/07/28 11:15:29;;;;;;;7.28;6.63;;;23.80;61.20;;;;;;5057023;28;20284;-90
2021/07/28 11:17:56;;;;;;;9.40;6.65;;;23.90;61.10;;;;;;5052835;28;20239;-90
2021/07/28 11:20:29;;;;;;;7.43;6.80;;;24.30;61.90;;;;;;5027532;28;20197;-91
2021/07/28 11:23:24;;;;;;;7.20;6.60;;;24.50;61.80;;;;;;5050673;28;20181;-90
2021/07/28 11:25:51;;;;;;;7.38;6.68;;;24.80;62.20;;;;;;5055814;28;20211;-91
2021/07/28 11:28:19;;;;;;;7.88;7.05;;;25.20;59.70;;;;;;5059927;28;20654;-91
2021/07/28 11:30:58;;;;;;;7.93;7.22;;;25.20;59.50;;;;;;5047719;28;20213;-90
2021/07/28 11:33:25;;;;;;;8.70;7.30;;;25.30;59.00;;;;;;5047966;28;20222;-91
2021/07/28 11:35:52;;;;;;;7.70;7.05;;;25.50;59.10;;;;;;5055286;28;20219;-91
2021/07/28 11:38:25;;;;;;;7.00;6.25;;;25.50;58.90;;;;;;5057339;28;20208;-90
2021/07/28 11:40:57;;;;;;;7.70;6.90;;;25.70;57.20;;;;;;5045087;28;20211;-91
2021/07/28 11:43:26;;;;;;;7.68;6.95;;;25.90;57.00;;;;;;5046004;28;20203;-91
2021/07/28 11:46:16;;;;;;;7.18;6.55;;;25.60;57.80;;;;;;5047972;28;20188;-91
2021/07/28 11:48:44;;;;;;;7.63;6.80;;;25.90;55.40;;;;;;5036821;28;20268;-91
2021/07/28 11:51:32;;;;;;;7.32;6.53;;;25.80;55.80;;;;;;5048152;28;20200;-90
2021/07/28 11:54:17;;;;;;;7.15;6.55;;;26.10;58.20;;;;;;5051990;28;20255;-91
2021/07/28 11:56:49;;;;;;;7.72;6.05;;;26.10;54.90;;;;;;5053987;28;20605;-90
2021/07/28 11:59:22;;;;;;;7.05;6.35;;;26.30;55.50;;;;;;5055297;28;20187;-91
2021/07/28 12:01:53;;;;;;;9.05;7.18;;;26.40;53.70;;;;;;5047711;28;20199;-92
2021/07/28 12:04:24;;;;;;;6.78;6.22;;;26.70;54.90;;;;;;5047079;28;20193;-91
2021/07/28 12:06:52;;;;;;;6.13;5.57;;;27.20;50.00;;;;;;5051672;28;20223;-91
2021/07/28 12:09:18;;;;;;;8.88;6.20;;;26.90;50.00;;;;;;5052405;28;20226;-91
2021/07/28 12:11:52;;;;;;;6.80;6.28;;;27.50;51.00;;;;;;5053327;28;20204;-92
2021/07/28 12:14:28;;;;;;;6.85;6.20;;;27.60;50.10;;;;;;5049739;28;20196;-91
2021/07/28 12:16:55;;;;;;;7.10;5.80;;;27.70;50.80;;;;;;5046891;28;20188;-92
2021/07/28 12:19:26;;;;;;;6.00;5.53;;;27.30;51.20;;;;;;5033479;28;20275;-91
2021/07/28 12:22:12;;;;;;;6.35;5.85;;;27.80;48.80;;;;;;5046943;28;20198;-91
2021/07/28 12:24:46;;;;;;;7.30;6.60;;;27.80;49.10;;;;;;5050312;28;20247;-92
2021/07/28 12:27:29;;;;;;;6.07;5.60;;;27.10;51.40;;;;;;5051519;28;20200;-89
2021/07/28 12:30:08;;;;;;;6.50;6.07;;;26.80;51.60;;;;;;5049230;28;20208;-89
2021/07/28 12:32:37;;;;;;;8.02;6.55;;;26.80;51.10;;;;;;5040374;28;20262;-89
2021/07/28 12:35:14;;;;;;;6.10;5.38;;;27.00;52.30;;;;;;5037089;28;20730;-89
2021/07/28 12:37:39;;;;;;;5.97;5.35;;;26.50;51.30;;;;;;5051647;28;20230;-89
2021/07/28 12:40:06;;;;;;;7.07;5.65;;;26.70;51.30;;;;;;5046671;28;20196;-88
2021/07/28 12:42:31;;;;;;;6.50;6.00;;;26.20;52.90;;;;;;5040098;28;20180;-89
2021/07/28 12:44:58;;;;;;;7.13;6.53;;;26.10;52.50;;;;;;5032232;28;20252;-88
2021/07/28 12:47:24;;;;;;;6.88;5.72;;;25.70;54.60;;;;;;5031635;28;20331;-91